createdAt,value
2017-10-22T00:00:22.935Z,11.43
2017-10-22T00:01:25.456Z,12.90
2017-10-22T00:02:28.682Z,11.82
2017-10-22T00:03:31.910Z,11.68
2017-10-22T00:04:34.375Z,11.55
2017-10-22T00:05:36.843Z,12.32
2017-10-22T00:06:39.425Z,10.90
2017-10-22T00:07:41.902Z,12.37
2017-10-22T00:08:44.361Z,11.45
2017-10-22T00:09:47.583Z,10.98
2017-10-22T00:10:50.046Z,11.45
2017-10-22T00:11:52.524Z,11.25
2017-10-22T00:12:55.003Z,11.10
2017-10-22T00:13:57.521Z,11.77
2017-10-22T00:14:59.974Z,12.73
2017-10-22T00:16:02.430Z,12.02
2017-10-22T00:17:04.904Z,12.55
2017-10-22T00:18:07.352Z,12.88
2017-10-22T00:19:09.848Z,12.15
2017-10-22T00:20:12.286Z,12.75
2017-10-22T00:21:14.751Z,11.82
2017-10-22T00:22:17.248Z,11.80
2017-10-22T00:23:19.703Z,11.57
2017-10-22T00:24:22.166Z,12.50
2017-10-22T00:25:24.629Z,12.00
2017-10-22T00:26:27.173Z,13.77
2017-10-22T00:27:29.715Z,11.57
2017-10-22T00:28:32.174Z,12.32
2017-10-22T00:29:34.652Z,12.13
2017-10-22T00:30:37.161Z,11.35
2017-10-22T00:31:39.626Z,12.70
2017-10-22T00:32:42.893Z,12.93
2017-10-22T00:33:45.370Z,13.35
2017-10-22T00:34:47.833Z,13.52
2017-10-22T00:35:50.298Z,13.00
2017-10-22T00:36:52.764Z,12.90
2017-10-22T00:37:56.054Z,13.88
2017-10-22T00:38:58.559Z,13.20
2017-10-22T00:40:01.034Z,12.57
2017-10-22T00:41:03.510Z,13.27
2017-10-22T00:42:05.988Z,12.68
2017-10-22T00:43:08.448Z,14.70
2017-10-22T00:44:10.930Z,13.05
2017-10-22T00:45:13.391Z,13.90
2017-10-22T00:46:15.877Z,13.85
2017-10-22T00:47:18.373Z,13.43
2017-10-22T00:48:20.838Z,14.05
2017-10-22T00:49:23.318Z,14.18
2017-10-22T00:50:25.842Z,14.10
2017-10-22T00:51:28.306Z,14.77
2017-10-22T00:52:30.783Z,14.68
2017-10-22T00:53:33.277Z,14.55
2017-10-22T00:54:36.498Z,14.50
2017-10-22T00:55:38.958Z,15.68
2017-10-22T00:56:41.434Z,15.38
2017-10-22T00:57:43.926Z,16.23
2017-10-22T00:58:46.395Z,14.40
2017-10-22T00:59:48.923Z,15.55
2017-10-22T01:00:51.456Z,15.38
2017-10-22T01:01:53.903Z,14.95
2017-10-22T01:02:57.134Z,15.73
2017-10-22T01:04:00.387Z,16.23
2017-10-22T01:05:03.612Z,15.00
2017-10-22T01:06:06.885Z,16.42
2017-10-22T01:07:09.413Z,16.33
2017-10-22T01:08:11.878Z,15.77
2017-10-22T01:09:14.362Z,15.80
2017-10-22T01:10:16.842Z,16.05
2017-10-22T01:11:19.307Z,16.83
2017-10-22T01:12:21.915Z,16.67
2017-10-22T01:13:25.306Z,17.75
2017-10-22T01:14:27.806Z,16.77
2017-10-22T01:15:30.284Z,16.37
2017-10-22T01:16:32.748Z,16.27
2017-10-22T01:17:35.988Z,17.27
2017-10-22T01:18:39.215Z,17.25
2017-10-22T01:19:41.749Z,16.60
2017-10-22T01:20:44.979Z,19.08
2017-10-22T01:21:48.253Z,18.00
2017-10-22T01:22:50.712Z,18.20
2017-10-22T01:23:53.174Z,18.25
2017-10-22T01:24:56.428Z,18.75
2017-10-22T01:25:59.648Z,18.02
2017-10-22T01:27:02.907Z,19.65
2017-10-22T01:28:06.138Z,18.17
2017-10-22T01:29:08.591Z,18.45
2017-10-22T01:30:11.050Z,18.10
2017-10-22T01:31:13.495Z,18.90
2017-10-22T01:32:15.976Z,18.58
2017-10-22T01:33:18.434Z,18.20
2017-10-22T01:34:20.903Z,18.60
2017-10-22T01:35:24.162Z,18.23
2017-10-22T01:36:26.626Z,18.10
2017-10-22T01:37:29.103Z,20.67
2017-10-22T01:38:31.597Z,19.65
2017-10-22T01:39:34.063Z,18.27
2017-10-22T01:40:36.543Z,18.85
2017-10-22T01:41:39.034Z,18.90
2017-10-22T01:42:41.506Z,18.65
2017-10-22T01:43:44.753Z,18.65
2017-10-22T01:44:47.992Z,17.92
2017-10-22T01:45:50.437Z,17.87
2017-10-22T01:46:52.910Z,19.55
2017-10-22T01:47:55.370Z,18.12
2017-10-22T01:48:58.617Z,18.05
2017-10-22T01:50:01.845Z,19.17
2017-10-22T01:51:05.079Z,18.75
2017-10-22T01:52:07.547Z,19.12
2017-10-22T01:53:10.014Z,18.85
2017-10-22T01:54:12.507Z,19.20
2017-10-22T01:55:14.970Z,19.87
2017-10-22T01:56:17.455Z,19.12
2017-10-22T01:57:19.930Z,20.73
2017-10-22T01:58:23.173Z,17.73
2017-10-22T01:59:25.654Z,19.15
2017-10-22T02:00:28.118Z,18.58
2017-10-22T02:01:30.594Z,20.25
2017-10-22T02:02:33.096Z,19.85
2017-10-22T02:03:36.325Z,19.00
2017-10-22T02:04:39.590Z,18.23
2017-10-22T02:05:42.089Z,19.15
2017-10-22T02:06:45.321Z,20.20
2017-10-22T02:07:47.826Z,19.35
2017-10-22T02:08:50.290Z,20.27
2017-10-22T02:09:53.559Z,19.10
2017-10-22T02:10:56.030Z,20.62
2017-10-22T02:11:58.506Z,20.60
2017-10-22T02:13:01.043Z,20.15
2017-10-22T02:14:03.515Z,19.55
2017-10-22T02:15:05.979Z,20.48
2017-10-22T02:16:08.491Z,19.48
2017-10-22T02:17:11.718Z,19.98
2017-10-22T02:18:14.193Z,21.10
2017-10-22T02:19:16.656Z,19.35
2017-10-22T02:20:19.142Z,20.33
2017-10-22T02:21:21.600Z,20.02
2017-10-22T02:22:24.076Z,20.12
2017-10-22T02:23:26.579Z,20.08
2017-10-22T02:24:29.815Z,19.20
2017-10-22T02:25:33.074Z,21.25
2017-10-22T02:26:35.582Z,20.02
2017-10-22T02:27:38.824Z,20.75
2017-10-22T02:28:42.108Z,19.80
2017-10-22T02:29:44.582Z,21.10
2017-10-22T02:30:47.046Z,20.75
2017-10-22T02:31:49.537Z,20.75
2017-10-22T02:32:52.766Z,20.05
2017-10-22T02:33:55.238Z,21.33
2017-10-22T02:34:57.710Z,20.98
2017-10-22T02:36:00.183Z,20.30
2017-10-22T02:37:02.670Z,18.98
2017-10-22T02:38:05.141Z,20.80
2017-10-22T02:39:07.606Z,19.25
2017-10-22T02:40:10.090Z,20.35
2017-10-22T02:41:12.554Z,20.45
2017-10-22T02:42:15.043Z,20.15
2017-10-22T02:43:17.515Z,19.65
2017-10-22T02:44:19.980Z,20.37
2017-10-22T02:45:22.470Z,19.40
2017-10-22T02:46:24.934Z,21.15
2017-10-22T02:47:27.399Z,20.73
2017-10-22T02:48:29.874Z,20.60
2017-10-22T02:49:32.351Z,21.60
2017-10-22T02:50:34.910Z,19.50
2017-10-22T02:51:38.125Z,20.08
2017-10-22T02:52:40.615Z,20.60
2017-10-22T02:53:43.104Z,20.95
2017-10-22T02:54:46.330Z,21.05
2017-10-22T02:55:48.848Z,19.50
2017-10-22T02:56:51.327Z,21.05
2017-10-22T02:57:53.830Z,20.80
2017-10-22T02:58:56.302Z,21.73
2017-10-22T02:59:58.783Z,20.83
2017-10-22T03:01:01.277Z,19.98
2017-10-22T03:02:03.751Z,20.92
2017-10-22T03:03:06.226Z,21.80
2017-10-22T03:04:08.698Z,21.20
2017-10-22T03:05:11.162Z,21.35
2017-10-22T03:06:13.644Z,21.80
2017-10-22T03:07:16.105Z,20.92
2017-10-22T03:08:18.560Z,20.45
2017-10-22T03:09:21.793Z,21.27
2017-10-22T03:10:25.039Z,20.25
2017-10-22T03:11:27.517Z,20.90
2017-10-22T03:12:29.979Z,20.85
2017-10-22T03:13:32.446Z,20.23
2017-10-22T03:14:34.909Z,21.00
2017-10-22T03:15:37.394Z,19.42
2017-10-22T03:16:39.881Z,21.15
2017-10-22T03:17:42.341Z,21.05
2017-10-22T03:18:44.837Z,20.10
2017-10-22T03:19:48.088Z,21.40
2017-10-22T03:20:51.318Z,21.98
2017-10-22T03:21:53.777Z,20.33
2017-10-22T03:22:56.256Z,21.25
2017-10-22T03:23:58.749Z,21.25
2017-10-22T03:25:01.218Z,20.80
2017-10-22T03:26:03.679Z,19.98
2017-10-22T03:27:06.155Z,19.62
2017-10-22T03:28:08.623Z,20.10
2017-10-22T03:29:11.139Z,19.58
2017-10-22T03:30:14.361Z,19.58
2017-10-22T03:31:16.859Z,20.15
2017-10-22T03:32:19.317Z,18.75
2017-10-22T03:33:22.562Z,20.40
2017-10-22T03:34:25.820Z,20.02
2017-10-22T03:35:28.307Z,19.92
2017-10-22T03:36:30.754Z,19.27
2017-10-22T03:37:33.985Z,19.40
2017-10-22T03:38:36.450Z,19.05
2017-10-22T03:39:38.937Z,19.00
2017-10-22T03:40:41.429Z,19.83
2017-10-22T03:41:43.892Z,20.80
2017-10-22T03:42:47.126Z,18.27
2017-10-22T03:43:49.595Z,18.95
2017-10-22T03:44:52.064Z,19.42
2017-10-22T03:45:54.563Z,18.55
2017-10-22T03:46:57.029Z,18.83
2017-10-22T03:48:00.265Z,17.42
2017-10-22T03:49:02.738Z,18.25
2017-10-22T03:50:05.209Z,17.45
2017-10-22T03:51:07.690Z,17.83
2017-10-22T03:52:10.147Z,17.85
2017-10-22T03:53:12.623Z,16.92
2017-10-22T03:54:15.119Z,17.73
2017-10-22T03:55:17.575Z,17.08
2017-10-22T03:56:20.050Z,17.00
2017-10-22T03:57:22.528Z,17.50
2017-10-22T03:58:24.999Z,16.62
2017-10-22T03:59:27.495Z,17.62
2017-10-22T04:00:29.985Z,17.33
2017-10-22T04:01:33.202Z,16.52
2017-10-22T04:02:35.666Z,16.50
2017-10-22T04:03:38.130Z,16.27
2017-10-22T04:04:40.622Z,15.18
2017-10-22T04:05:43.081Z,15.23
2017-10-22T04:06:45.574Z,16.73
2017-10-22T04:07:48.055Z,15.95
2017-10-22T04:08:50.527Z,14.95
2017-10-22T04:09:52.997Z,14.95
2017-10-22T04:10:55.454Z,15.00
2017-10-22T04:11:57.954Z,15.45
2017-10-22T04:13:00.425Z,16.20
2017-10-22T04:14:02.898Z,15.10
2017-10-22T04:15:05.361Z,15.63
2017-10-22T04:16:07.843Z,15.23
2017-10-22T04:17:10.320Z,15.43
2017-10-22T04:18:12.787Z,15.07
2017-10-22T04:19:15.248Z,13.85
2017-10-22T04:20:17.706Z,13.98
2017-10-22T04:21:20.191Z,14.43
2017-10-22T04:22:23.432Z,15.00
2017-10-22T04:23:26.663Z,14.20
2017-10-22T04:24:29.892Z,13.68
2017-10-22T04:25:32.362Z,14.30
2017-10-22T04:26:34.853Z,15.55
2017-10-22T04:27:37.310Z,15.35
2017-10-22T04:28:39.785Z,15.25
2017-10-22T04:29:42.278Z,13.88
2017-10-22T04:30:44.775Z,14.18
2017-10-22T04:31:47.235Z,13.90
2017-10-22T04:32:49.706Z,13.73
2017-10-22T04:33:52.939Z,15.00
2017-10-22T04:34:55.399Z,13.98
2017-10-22T04:35:57.878Z,14.93
2017-10-22T04:37:00.363Z,14.18
2017-10-22T04:38:02.846Z,14.20
2017-10-22T04:39:06.079Z,14.05
2017-10-22T04:40:08.540Z,13.52
2017-10-22T04:41:11.049Z,14.32
2017-10-22T04:42:14.276Z,14.30
2017-10-22T04:43:16.742Z,14.13
2017-10-22T04:44:19.206Z,14.15
2017-10-22T04:45:21.688Z,15.10
2017-10-22T04:46:24.175Z,14.63
2017-10-22T04:47:27.404Z,14.95
2017-10-22T04:48:29.873Z,14.63
2017-10-22T04:49:32.329Z,15.07
2017-10-22T04:50:34.792Z,15.02
2017-10-22T04:51:37.277Z,14.90
2017-10-22T04:52:39.739Z,15.02
2017-10-22T04:53:42.991Z,14.32
2017-10-22T04:54:46.217Z,14.15
2017-10-22T04:55:48.685Z,15.50
2017-10-22T04:56:51.196Z,14.10
2017-10-22T04:57:54.428Z,14.15
2017-10-22T04:58:57.670Z,14.40
2017-10-22T05:00:00.908Z,14.93
2017-10-22T05:01:04.134Z,14.27
2017-10-22T05:02:06.637Z,14.82
2017-10-22T05:03:09.091Z,14.73
2017-10-22T05:04:11.555Z,13.20
2017-10-22T05:05:14.023Z,14.23
2017-10-22T05:06:16.506Z,14.25
2017-10-22T05:07:19.002Z,14.63
2017-10-22T05:08:21.504Z,14.70
2017-10-22T05:09:23.949Z,13.30
2017-10-22T05:10:27.192Z,15.07
2017-10-22T05:11:30.411Z,14.00
2017-10-22T05:12:32.880Z,14.07
2017-10-22T05:13:35.359Z,14.10
2017-10-22T05:14:37.831Z,14.50
2017-10-22T05:15:40.306Z,13.90
2017-10-22T05:16:42.799Z,14.70
2017-10-22T05:17:45.259Z,13.80
2017-10-22T05:18:47.746Z,13.75
2017-10-22T05:19:50.246Z,12.50
2017-10-22T05:20:53.494Z,12.65
2017-10-22T05:21:55.975Z,13.23
2017-10-22T05:22:58.446Z,12.85
2017-10-22T05:24:00.922Z,12.32
2017-10-22T05:25:03.396Z,11.70
2017-10-22T05:26:05.883Z,11.75
2017-10-22T05:27:08.356Z,12.43
2017-10-22T05:28:10.815Z,12.32
2017-10-22T05:29:13.309Z,11.50
2017-10-22T05:30:15.778Z,11.70
2017-10-22T05:31:18.302Z,10.95
2017-10-22T05:32:20.786Z,10.88
2017-10-22T05:33:23.302Z,11.12
2017-10-22T05:34:25.762Z,10.68
2017-10-22T05:35:28.244Z,11.45
2017-10-22T05:36:31.485Z,11.18
2017-10-22T05:37:33.962Z,9.70
2017-10-22T05:38:36.414Z,10.93
2017-10-22T05:39:39.650Z,10.35
2017-10-22T05:40:42.122Z,10.57
2017-10-22T05:41:44.620Z,9.30
2017-10-22T05:42:47.850Z,8.80
2017-10-22T05:43:50.294Z,9.05
2017-10-22T05:44:52.757Z,8.93
2017-10-22T05:45:55.197Z,8.80
2017-10-22T05:46:57.724Z,8.65
2017-10-22T05:48:00.175Z,8.20
2017-10-22T05:49:03.410Z,8.00
2017-10-22T05:50:06.651Z,8.77
2017-10-22T05:51:09.122Z,7.62
2017-10-22T05:52:11.627Z,7.25
2017-10-22T05:53:14.094Z,7.60
2017-10-22T05:54:16.549Z,8.18
2017-10-22T05:55:19.790Z,7.50
2017-10-22T05:56:22.259Z,7.75
2017-10-22T05:57:24.729Z,6.93
2017-10-22T05:58:27.193Z,7.43
2017-10-22T05:59:29.661Z,7.75
2017-10-22T06:00:32.141Z,7.18
2017-10-22T06:01:34.611Z,6.82
2017-10-22T06:02:37.084Z,7.45
2017-10-22T06:03:39.562Z,7.07
2017-10-22T06:04:42.067Z,6.45
2017-10-22T06:05:44.543Z,6.18
2017-10-22T06:06:47.782Z,6.53
2017-10-22T06:07:50.245Z,6.60
2017-10-22T06:08:52.728Z,6.50
2017-10-22T06:09:55.216Z,6.82
2017-10-22T06:10:57.674Z,6.35
2017-10-22T06:12:00.127Z,6.37
2017-10-22T06:13:02.608Z,6.30
2017-10-22T06:14:05.079Z,5.68
2017-10-22T06:15:07.562Z,5.50
2017-10-22T06:16:10.018Z,5.60
2017-10-22T06:17:13.238Z,6.20
2017-10-22T06:18:15.718Z,6.07
2017-10-22T06:19:18.170Z,6.45
2017-10-22T06:20:20.637Z,5.95
2017-10-22T06:21:23.090Z,5.95
2017-10-22T06:22:25.546Z,6.20
2017-10-22T06:23:28.012Z,6.57
2017-10-22T06:24:31.271Z,6.32
2017-10-22T06:25:33.735Z,5.90
2017-10-22T06:26:36.194Z,5.30
2017-10-22T06:27:39.445Z,6.15
2017-10-22T06:28:42.695Z,5.65
2017-10-22T06:29:45.175Z,5.70
2017-10-22T06:30:47.638Z,5.60
2017-10-22T06:31:50.108Z,6.47
2017-10-22T06:32:52.606Z,5.85
2017-10-22T06:33:55.066Z,6.22
2017-10-22T06:34:57.535Z,5.78
2017-10-22T06:36:00.789Z,6.22
2017-10-22T06:37:03.248Z,4.95
2017-10-22T06:38:05.711Z,5.40
2017-10-22T06:39:08.938Z,5.45
2017-10-22T06:40:11.412Z,5.20
2017-10-22T06:41:13.877Z,5.03
2017-10-22T06:42:16.318Z,6.20
2017-10-22T06:43:18.783Z,5.00
2017-10-22T06:44:21.266Z,5.57
2017-10-22T06:45:23.753Z,5.30
2017-10-22T06:46:26.239Z,5.70
2017-10-22T06:47:29.457Z,5.45
2017-10-22T06:49:40.787Z,5.47
2017-10-22T06:50:43.258Z,5.45
2017-10-22T06:51:45.731Z,5.57
2017-10-22T06:52:48.190Z,5.47
2017-10-22T06:53:50.659Z,5.05
2017-10-22T06:54:53.994Z,6.60
2017-10-22T06:55:56.458Z,5.43
2017-10-22T06:56:58.925Z,5.40
2017-10-22T06:58:01.391Z,5.50
2017-10-22T06:59:04.624Z,5.75
2017-10-22T07:00:07.900Z,5.50
2017-10-22T07:01:10.362Z,5.93
2017-10-22T07:02:12.842Z,4.10
2017-10-22T07:03:15.311Z,5.37
2017-10-22T07:04:17.765Z,5.47
2017-10-22T07:05:21.022Z,5.10
2017-10-22T07:06:23.500Z,5.50
2017-10-22T07:07:25.950Z,6.25
2017-10-22T07:08:28.414Z,5.68
2017-10-22T07:09:30.926Z,5.30
2017-10-22T07:10:33.390Z,5.68
2017-10-22T07:11:35.871Z,5.37
2017-10-22T07:12:39.112Z,4.80
2017-10-22T07:13:42.343Z,4.40
2017-10-22T07:14:45.610Z,4.65
2017-10-22T07:15:48.074Z,5.37
2017-10-22T07:16:50.551Z,4.90
2017-10-22T07:17:53.068Z,5.05
2017-10-22T07:18:56.285Z,4.57
2017-10-22T07:19:58.741Z,4.40
2017-10-22T07:21:01.235Z,4.90
2017-10-22T07:22:03.697Z,4.70
2017-10-22T07:23:06.174Z,4.50
2017-10-22T07:24:08.627Z,4.95
2017-10-22T07:25:11.846Z,4.78
2017-10-22T07:26:14.326Z,4.72
2017-10-22T07:27:16.781Z,4.28
2017-10-22T07:28:19.239Z,4.40
2017-10-22T07:29:22.516Z,4.80
2017-10-22T07:30:24.982Z,4.60
2017-10-22T07:31:27.447Z,4.80
2017-10-22T07:32:29.914Z,4.00
2017-10-22T07:33:32.375Z,4.53
2017-10-22T07:34:35.618Z,3.80
2017-10-22T07:35:38.121Z,4.40
2017-10-22T07:36:40.590Z,4.15
2017-10-22T07:37:43.844Z,5.25
2017-10-22T07:38:46.294Z,4.03
2017-10-22T07:39:48.759Z,3.70
2017-10-22T07:40:52.863Z,4.37
2017-10-22T07:41:55.314Z,4.10
2017-10-22T07:42:57.794Z,3.97
2017-10-22T07:44:00.262Z,37.53
2017-10-22T07:45:02.718Z,13.32
2017-10-22T07:46:05.944Z,34.95
2017-10-22T07:47:08.445Z,66.12
2017-10-22T07:48:10.910Z,77.25
2017-10-22T07:49:14.137Z,11.70
2017-10-22T07:50:16.594Z,14.68
2017-10-22T07:51:19.808Z,20.33
2017-10-22T07:52:22.291Z,62.95
2017-10-22T07:53:24.782Z,6.97
2017-10-22T07:54:28.011Z,26.60
2017-10-22T07:55:31.242Z,33.65
2017-10-22T07:56:33.718Z,46.42
2017-10-22T07:57:36.198Z,4.82
2017-10-22T07:58:38.682Z,9.85
2017-10-22T07:59:41.146Z,5.18
2017-10-22T08:00:43.613Z,8.18
2017-10-22T08:01:46.077Z,4.37
2017-10-22T08:02:48.529Z,4.10
2017-10-22T08:03:51.776Z,4.62
2017-10-22T08:04:54.999Z,6.07
2017-10-22T08:05:57.468Z,4.15
2017-10-22T08:06:59.938Z,5.00
2017-10-22T08:08:02.387Z,3.20
2017-10-22T08:09:05.637Z,3.75
2017-10-22T08:10:08.860Z,4.05
2017-10-22T08:11:11.313Z,3.08
2017-10-22T08:12:13.768Z,4.15
2017-10-22T08:13:16.228Z,4.53
2017-10-22T08:14:18.709Z,3.22
2017-10-22T08:15:21.166Z,4.03
2017-10-22T08:16:23.617Z,3.97
2017-10-22T08:17:26.863Z,4.12
2017-10-22T08:18:30.083Z,3.47
2017-10-22T08:19:32.554Z,3.55
2017-10-22T08:20:35.018Z,3.20
2017-10-22T08:21:37.479Z,3.75
2017-10-22T08:22:40.764Z,3.45
2017-10-22T08:23:43.310Z,4.05
2017-10-22T08:24:45.783Z,3.65
2017-10-22T08:25:49.009Z,3.62
2017-10-22T08:26:52.239Z,22.05
2017-10-22T08:27:54.701Z,16.42
2017-10-22T08:28:57.173Z,3.70
2017-10-22T08:29:59.643Z,5.32
2017-10-22T08:31:02.865Z,24.25
2017-10-22T08:32:06.108Z,4.87
2017-10-22T08:33:09.330Z,3.70
2017-10-22T08:34:11.811Z,3.80
2017-10-22T08:35:14.259Z,2.85
2017-10-22T08:36:16.732Z,3.20
2017-10-22T08:37:19.966Z,2.60
2017-10-22T08:38:23.208Z,3.10
2017-10-22T08:39:25.665Z,3.55
2017-10-22T08:40:28.118Z,3.35
2017-10-22T08:41:30.603Z,3.45
2017-10-22T08:42:33.082Z,3.72
2017-10-22T08:43:35.582Z,2.78
2017-10-22T08:44:38.036Z,2.90
2017-10-22T08:45:40.487Z,3.15
2017-10-22T08:46:43.738Z,3.12
2017-10-22T08:47:46.965Z,2.70
2017-10-22T08:48:50.209Z,2.97
2017-10-22T08:49:53.473Z,3.10
2017-10-22T08:50:55.932Z,3.20
2017-10-22T08:51:58.411Z,2.85
2017-10-22T08:53:00.895Z,3.08
2017-10-22T08:54:03.493Z,3.03
2017-10-22T08:55:05.995Z,2.62
2017-10-22T08:56:08.453Z,3.08
2017-10-22T08:57:11.229Z,3.42
2017-10-22T08:58:14.546Z,3.03
2017-10-22T08:59:17.011Z,3.42
2017-10-22T09:00:20.236Z,2.80
2017-10-22T09:01:22.727Z,3.05
2017-10-22T09:02:25.190Z,3.50
2017-10-22T09:03:28.425Z,3.80
2017-10-22T09:04:30.900Z,3.37
2017-10-22T09:05:33.458Z,3.50
2017-10-22T09:06:35.954Z,3.75
2017-10-22T09:07:38.434Z,3.40
2017-10-22T09:08:41.734Z,3.42
2017-10-22T09:09:44.183Z,2.97
2017-10-22T09:10:46.659Z,3.30
2017-10-22T09:11:49.145Z,4.03
2017-10-22T09:12:51.610Z,3.70
2017-10-22T09:13:54.064Z,3.08
2017-10-22T09:14:56.526Z,3.05
2017-10-22T09:15:58.994Z,3.53
2017-10-22T09:17:01.487Z,4.18
2017-10-22T09:18:04.748Z,3.85
2017-10-22T09:19:07.211Z,3.30
2017-10-22T09:20:09.687Z,3.53
2017-10-22T09:21:12.170Z,3.50
2017-10-22T09:22:14.660Z,6.00
2017-10-22T09:23:17.114Z,3.53
2017-10-22T09:24:19.565Z,5.07
2017-10-22T09:25:22.819Z,3.50
2017-10-22T09:26:26.055Z,43.65
2017-10-22T09:27:29.279Z,3.72
2017-10-22T09:28:31.733Z,3.50
2017-10-22T09:29:35.010Z,3.60
2017-10-22T09:30:37.628Z,3.10
2017-10-22T09:31:40.093Z,3.12
2017-10-22T09:32:42.549Z,2.95
2017-10-22T09:33:45.844Z,3.50
2017-10-22T09:34:48.294Z,2.97
2017-10-22T09:35:50.996Z,3.45
2017-10-22T09:36:53.463Z,3.42
2017-10-22T09:37:56.725Z,2.87
2017-10-22T09:38:59.218Z,3.00
2017-10-22T09:40:01.671Z,3.70
2017-10-22T09:41:04.224Z,4.00
2017-10-22T09:42:06.699Z,3.30
2017-10-22T09:43:09.212Z,2.90
2017-10-22T09:44:11.681Z,2.65
2017-10-22T09:45:14.155Z,2.65
2017-10-22T09:46:16.664Z,2.83
2017-10-22T09:47:19.113Z,2.90
2017-10-22T09:48:21.574Z,2.97
2017-10-22T09:49:24.026Z,2.80
2017-10-22T09:50:26.505Z,2.53
2017-10-22T09:51:29.744Z,2.47
2017-10-22T09:52:32.214Z,2.33
2017-10-22T09:53:34.678Z,2.80
2017-10-22T09:54:37.138Z,3.08
2017-10-22T09:55:39.609Z,2.35
2017-10-22T09:56:42.149Z,2.25
2017-10-22T09:57:44.635Z,3.00
2017-10-22T09:58:47.096Z,3.58
2017-10-22T09:59:49.567Z,2.78
2017-10-22T10:00:52.050Z,2.87
2017-10-22T10:01:54.539Z,2.90
2017-10-22T10:02:57.012Z,2.90
2017-10-22T10:03:59.515Z,2.85
2017-10-22T10:05:02.087Z,3.20
2017-10-22T10:06:04.584Z,3.25
2017-10-22T10:07:07.117Z,2.90
2017-10-22T10:08:10.385Z,2.58
2017-10-22T10:09:13.648Z,2.75
2017-10-22T10:10:16.130Z,2.80
2017-10-22T10:11:19.349Z,2.50
2017-10-22T10:12:21.855Z,2.75
2017-10-22T10:13:24.346Z,2.72
2017-10-22T10:14:26.830Z,3.15
2017-10-22T10:15:29.361Z,3.60
2017-10-22T10:16:31.815Z,2.83
2017-10-22T10:17:34.266Z,3.10
2017-10-22T10:18:36.748Z,2.60
2017-10-22T10:19:40.004Z,2.85
2017-10-22T10:20:43.261Z,2.50
2017-10-22T10:21:45.739Z,3.30
2017-10-22T10:22:48.205Z,3.20
2017-10-22T10:23:50.755Z,3.45
2017-10-22T10:24:53.232Z,2.55
2017-10-22T10:25:56.521Z,2.70
2017-10-22T10:26:58.998Z,2.42
2017-10-22T10:28:01.468Z,2.60
2017-10-22T10:29:03.950Z,2.65
2017-10-22T10:30:07.209Z,2.25
2017-10-22T10:31:11.274Z,2.40
2017-10-22T10:32:13.772Z,2.37
2017-10-22T10:33:16.227Z,3.00
2017-10-22T10:34:18.698Z,2.92
2017-10-22T10:35:21.140Z,2.15
2017-10-22T10:36:23.633Z,2.05
2017-10-22T10:37:26.093Z,2.30
2017-10-22T10:38:28.624Z,2.92
2017-10-22T10:39:31.081Z,2.50
2017-10-22T10:40:33.530Z,2.40
2017-10-22T10:41:36.006Z,2.30
2017-10-22T10:42:39.230Z,2.22
2017-10-22T10:43:41.675Z,1.90
2017-10-22T10:44:44.903Z,2.60
2017-10-22T10:45:47.410Z,2.35
2017-10-22T10:46:49.894Z,1.90
2017-10-22T10:47:52.346Z,2.35
2017-10-22T10:48:54.806Z,1.92
2017-10-22T10:49:58.039Z,1.85
2017-10-22T10:51:00.513Z,2.40
2017-10-22T10:52:02.955Z,2.37
2017-10-22T10:53:05.412Z,2.47
2017-10-22T10:54:07.885Z,2.20
2017-10-22T10:55:10.369Z,2.50
2017-10-22T10:56:13.594Z,2.20
2017-10-22T10:57:16.057Z,3.78
2017-10-22T10:58:19.279Z,2.95
2017-10-22T10:59:22.545Z,3.05
2017-10-22T11:00:25.027Z,2.42
2017-10-22T11:01:27.525Z,2.40
2017-10-22T11:02:29.970Z,2.58
2017-10-22T11:03:32.421Z,2.47
2017-10-22T11:04:35.641Z,2.40
2017-10-22T11:05:38.109Z,2.50
2017-10-22T11:06:40.603Z,2.70
2017-10-22T11:07:43.065Z,2.35
2017-10-22T11:08:45.520Z,2.30
2017-10-22T11:09:47.961Z,2.50
2017-10-22T11:10:50.451Z,2.25
2017-10-22T11:11:52.915Z,2.47
2017-10-22T11:12:55.373Z,2.33
2017-10-22T11:13:58.593Z,2.80
2017-10-22T11:15:01.874Z,1.95
2017-10-22T11:16:04.327Z,2.60
2017-10-22T11:17:06.802Z,2.35
2017-10-22T11:18:10.007Z,3.12
2017-10-22T11:19:12.478Z,2.50
2017-10-22T11:20:14.974Z,1.80
2017-10-22T11:21:17.442Z,2.42
2017-10-22T11:22:19.896Z,2.75
2017-10-22T11:23:22.394Z,2.40
2017-10-22T11:24:24.857Z,3.50
2017-10-22T11:25:27.330Z,2.90
2017-10-22T11:26:29.808Z,2.25
2017-10-22T11:27:32.266Z,2.10
2017-10-22T11:28:35.532Z,2.65
2017-10-22T11:29:38.008Z,2.45
2017-10-22T11:30:40.507Z,2.33
2017-10-22T11:31:42.970Z,1.85
2017-10-22T11:32:46.219Z,2.40
2017-10-22T11:33:49.438Z,2.30
2017-10-22T11:34:51.894Z,2.92
2017-10-22T11:35:55.154Z,2.35
2017-10-22T11:36:57.636Z,2.05
2017-10-22T11:38:00.166Z,4.60
2017-10-22T11:39:02.631Z,2.08
2017-10-22T11:40:05.120Z,2.10
2017-10-22T11:41:07.625Z,2.05
2017-10-22T11:42:10.090Z,2.12
2017-10-22T11:43:13.305Z,2.50
2017-10-22T11:44:15.775Z,2.80
2017-10-22T11:45:18.267Z,2.90
2017-10-22T11:46:20.746Z,2.92
2017-10-22T11:47:23.223Z,2.20
2017-10-22T11:48:26.483Z,2.83
2017-10-22T11:49:29.705Z,2.60
2017-10-22T11:50:32.169Z,2.60
2017-10-22T11:51:34.619Z,2.40
2017-10-22T11:52:37.098Z,2.58
2017-10-22T11:53:40.325Z,2.95
2017-10-22T11:54:43.563Z,2.30
2017-10-22T11:55:46.778Z,1.92
2017-10-22T11:56:49.258Z,2.50
2017-10-22T11:57:51.717Z,2.30
2017-10-22T11:58:54.173Z,2.40
2017-10-22T11:59:57.393Z,2.67
2017-10-22T12:00:59.877Z,2.17
2017-10-22T12:02:03.321Z,2.40
2017-10-22T12:03:05.790Z,3.00
2017-10-22T12:04:08.251Z,2.40
2017-10-22T12:05:11.471Z,2.50
2017-10-22T12:06:13.958Z,3.17
2017-10-22T12:07:16.413Z,2.50
2017-10-22T12:08:18.891Z,2.45
2017-10-22T12:09:21.340Z,2.72
2017-10-22T12:10:23.807Z,2.72
2017-10-22T12:11:27.071Z,2.22
2017-10-22T12:12:29.530Z,2.60
2017-10-22T12:13:31.987Z,2.60
2017-10-22T12:14:34.441Z,2.40
2017-10-22T12:15:36.914Z,2.40
2017-10-22T12:16:39.403Z,2.70
2017-10-22T12:17:41.876Z,2.78
2017-10-22T12:18:44.338Z,2.92
2017-10-22T12:19:46.826Z,2.78
2017-10-22T12:20:49.286Z,2.40
2017-10-22T12:21:51.734Z,2.62
2017-10-22T12:22:54.192Z,2.50
2017-10-22T12:23:56.661Z,2.65
2017-10-22T12:24:59.135Z,2.17
2017-10-22T12:26:01.628Z,2.70
2017-10-22T12:27:04.098Z,2.65
2017-10-22T12:28:06.560Z,2.30
2017-10-22T12:29:09.024Z,2.42
2017-10-22T12:30:11.505Z,2.50
2017-10-22T12:31:14.733Z,2.50
2017-10-22T12:32:17.969Z,2.10
2017-10-22T12:33:20.433Z,2.60
2017-10-22T12:34:22.901Z,2.62
2017-10-22T12:35:25.424Z,2.17
2017-10-22T12:36:27.886Z,2.00
2017-10-22T12:37:31.122Z,2.10
2017-10-22T12:38:34.361Z,2.50
2017-10-22T12:39:37.582Z,3.25
2017-10-22T12:40:40.027Z,2.67
2017-10-22T12:41:43.252Z,2.80
2017-10-22T12:42:45.737Z,2.47
2017-10-22T12:43:48.216Z,2.25
2017-10-22T12:44:51.487Z,2.70
2017-10-22T12:45:53.936Z,2.25
2017-10-22T12:46:56.399Z,2.22
2017-10-22T12:47:58.888Z,2.65
2017-10-22T12:49:01.379Z,2.25
2017-10-22T12:50:03.829Z,2.62
2017-10-22T12:51:06.294Z,2.10
2017-10-22T12:52:08.760Z,2.78
2017-10-22T12:53:11.270Z,2.05
2017-10-22T12:54:14.485Z,2.00
2017-10-22T12:55:16.973Z,1.92
2017-10-22T12:56:19.482Z,1.70
2017-10-22T12:57:22.037Z,2.10
2017-10-22T12:58:24.566Z,2.08
2017-10-22T12:59:27.053Z,2.35
2017-10-22T13:00:29.522Z,2.50
2017-10-22T13:01:31.986Z,1.90
2017-10-22T13:02:35.198Z,2.25
2017-10-22T13:03:37.694Z,2.45
2017-10-22T13:04:40.177Z,2.25
2017-10-22T13:05:43.406Z,2.15
2017-10-22T13:06:46.635Z,2.40
2017-10-22T13:07:49.106Z,2.15
2017-10-22T13:08:51.579Z,2.70
2017-10-22T13:09:54.155Z,2.35
2017-10-22T13:10:56.655Z,2.10
2017-10-22T13:11:59.113Z,2.45
2017-10-22T13:13:01.608Z,2.50
2017-10-22T13:14:04.122Z,2.67
2017-10-22T13:15:07.343Z,2.58
2017-10-22T13:16:09.811Z,2.47
2017-10-22T13:17:12.263Z,2.72
2017-10-22T13:18:14.751Z,2.50
2017-10-22T13:19:17.254Z,2.42
2017-10-22T13:20:19.722Z,2.62
2017-10-22T13:21:22.206Z,2.30
2017-10-22T13:22:24.704Z,2.70
2017-10-22T13:23:27.165Z,1.85
2017-10-22T13:24:30.391Z,2.08
2017-10-22T13:25:32.861Z,1.80
2017-10-22T13:26:35.350Z,3.30
2017-10-22T13:27:37.816Z,2.10
2017-10-22T13:28:40.272Z,2.37
2017-10-22T13:29:42.736Z,2.50
2017-10-22T13:30:45.968Z,2.00
2017-10-22T13:31:48.458Z,2.30
2017-10-22T13:32:50.912Z,2.15
2017-10-22T13:33:53.406Z,1.80
2017-10-22T13:34:55.893Z,1.95
2017-10-22T13:35:59.114Z,2.25
2017-10-22T13:37:02.374Z,2.28
2017-10-22T13:38:05.624Z,2.20
2017-10-22T13:39:08.083Z,2.00
2017-10-22T13:40:10.544Z,1.70
2017-10-22T13:41:12.987Z,2.05
2017-10-22T13:42:16.202Z,2.10
2017-10-22T13:43:18.716Z,2.10